Аэропорт: Чебоксары. Чебоксары

ICAO: UWKS

METAR:
2021-01-20 03:30:00
UWKS 200330Z 31002MPS 3300 -SN BR FEW011 M18/M20 Q1011 R06/490333 NOSIG RMK QFE743
METAR:
2021-01-20 01:54:00
TAF UWKS 200154Z 2003/2012 28003G08MPS 6000 BKN011 TXM17/2012Z TNM19/2003Z TEMPO 2003/2011 3000 -SN BR OVC006